Wilton, New Hampshire
Current Conditions -  °F | °C
As of 1:51 PM on Saturday 25 Oct 2014 (Local Time) from KASH Reporting Station
Scattered Clouds Scattered Clouds  
Wind Chill: 18°   Ceiling: Unl
Heat Index: 18°   Visibility: 10mi
Dew Point:   Wind: 7mph
Humidity: 34%   Direction: 310°NW
Pressure: 29.64"   Gusts: 20mph
Location:  42.85°N, 71.74°W
Report Text: KASH 251751Z 31006G17KT 10SM SCT050 18/02 A2964 RMK AO2 58029 T01830022 10183 20044 SLP281 $
Loading
Personal Weather Stations






























Interactive Weather Map
Tropical Storm Tracking
New forecast layout! Learn more

10-Day Weather Forecast

Advertisements
Track Severe Weather on mobile